createdAt,value
2018-11-26T00:01:50.458Z,37.53
2018-11-26T00:04:18.677Z,35.93
2018-11-26T00:06:46.916Z,35.20
2018-11-26T00:09:15.107Z,34.43
2018-11-26T00:11:44.477Z,35.43
2018-11-26T00:14:12.697Z,35.23
2018-11-26T00:16:40.926Z,33.90
2018-11-26T00:19:09.144Z,35.40
2018-11-26T00:21:37.391Z,34.60
2018-11-26T00:24:05.818Z,33.70
2018-11-26T00:26:34.045Z,36.27
2018-11-26T00:29:02.250Z,35.80
2018-11-26T00:31:30.466Z,35.67
2018-11-26T00:33:58.679Z,35.37
2018-11-26T00:36:26.905Z,34.80
2018-11-26T00:38:55.125Z,34.30
2018-11-26T00:41:23.358Z,32.93
2018-11-26T00:43:51.571Z,30.80
2018-11-26T00:46:20.787Z,30.93
2018-11-26T00:48:48.569Z,30.60
2018-11-26T00:51:16.783Z,30.67
2018-11-26T00:53:44.991Z,31.47
2018-11-26T00:56:13.249Z,30.50
2018-11-26T00:58:41.488Z,32.07
2018-11-26T01:01:09.734Z,33.37
2018-11-26T01:03:37.951Z,31.27
2018-11-26T01:06:06.177Z,32.30
2018-11-26T01:08:35.329Z,33.40
2018-11-26T01:11:03.539Z,34.07
2018-11-26T01:13:31.764Z,33.10
2018-11-26T01:15:59.962Z,33.63
2018-11-26T01:18:28.181Z,33.33
2018-11-26T01:20:56.496Z,33.03
2018-11-26T01:23:24.717Z,33.20
2018-11-26T01:25:53.249Z,32.50
2018-11-26T01:28:21.468Z,32.40
2018-11-26T01:30:49.661Z,33.77
2018-11-26T01:33:17.895Z,34.50
2018-11-26T01:35:46.177Z,32.37
2018-11-26T01:38:14.393Z,34.70
2018-11-26T01:40:48.515Z,33.23
2018-11-26T01:43:16.832Z,33.57
2018-11-26T01:45:45.053Z,32.97
2018-11-26T01:48:13.298Z,34.40
2018-11-26T01:50:41.515Z,34.00
2018-11-26T01:53:09.757Z,37.47
2018-11-26T01:55:37.998Z,32.50
2018-11-26T01:58:06.225Z,34.27
2018-11-26T02:00:34.459Z,34.97
2018-11-26T02:03:02.669Z,36.27
2018-11-26T02:05:30.888Z,37.60
2018-11-26T02:07:59.117Z,35.77
2018-11-26T02:10:27.362Z,35.87
2018-11-26T02:12:55.623Z,36.83
2018-11-26T02:15:36.099Z,39.77
2018-11-26T02:18:04.310Z,39.67
2018-11-26T02:20:32.574Z,39.63
2018-11-26T02:23:00.804Z,37.60
2018-11-26T02:25:29.010Z,41.17
2018-11-26T02:27:57.229Z,39.70
2018-11-26T02:30:25.449Z,39.63
2018-11-26T02:32:53.653Z,40.37
2018-11-26T02:35:21.893Z,40.27
2018-11-26T02:37:53.438Z,37.20
2018-11-26T02:40:25.795Z,38.30
2018-11-26T02:42:54.002Z,37.83
2018-11-26T02:45:23.096Z,38.17
2018-11-26T02:47:51.320Z,39.60
2018-11-26T02:50:19.533Z,38.47
2018-11-26T02:52:47.959Z,41.53
2018-11-26T02:55:16.187Z,39.90
2018-11-26T02:57:44.376Z,38.73
2018-11-26T03:00:13.197Z,40.00
2018-11-26T03:02:41.434Z,39.00
2018-11-26T03:05:10.769Z,39.17
2018-11-26T03:07:39.011Z,40.23
2018-11-26T03:10:08.639Z,38.37
2018-11-26T03:12:37.642Z,40.37
2018-11-26T03:15:11.172Z,40.27
2018-11-26T03:17:39.708Z,40.23
2018-11-26T03:20:09.014Z,39.23
2018-11-26T03:22:37.253Z,38.37
2018-11-26T03:25:06.807Z,37.17
2018-11-26T03:27:35.025Z,38.47
2018-11-26T03:30:03.757Z,38.43
2018-11-26T03:32:31.959Z,38.93
2018-11-26T03:35:00.153Z,38.43
2018-11-26T03:37:28.365Z,36.73
2018-11-26T03:39:56.557Z,38.03
2018-11-26T03:42:24.778Z,35.40
2018-11-26T03:44:52.984Z,37.60
2018-11-26T03:47:21.224Z,38.30
2018-11-26T03:49:49.433Z,38.00
2018-11-26T03:52:17.688Z,37.80
2018-11-26T03:54:45.891Z,38.30
2018-11-26T03:57:14.958Z,37.10
2018-11-26T03:59:43.182Z,38.13
2018-11-26T04:02:11.428Z,38.83
2018-11-26T04:04:39.631Z,38.37
2018-11-26T04:07:07.838Z,37.07
2018-11-26T04:09:36.053Z,35.97
2018-11-26T04:12:04.268Z,35.73
2018-11-26T04:14:32.477Z,36.27
2018-11-26T04:17:04.518Z,36.33
2018-11-26T04:19:32.841Z,36.27
2018-11-26T04:22:01.080Z,37.23
2018-11-26T04:24:29.285Z,39.00
2018-11-26T04:26:58.571Z,36.07
2018-11-26T04:29:25.771Z,35.33
2018-11-26T04:31:54.047Z,30.50
2018-11-26T04:34:22.301Z,30.50
2018-11-26T04:36:50.524Z,28.37
2018-11-26T04:39:18.729Z,28.20
2018-11-26T04:41:46.944Z,29.53
2018-11-26T04:44:15.145Z,32.27
2018-11-26T04:46:43.351Z,33.97
2018-11-26T04:49:11.584Z,35.13
2018-11-26T04:51:39.790Z,34.23
2018-11-26T04:54:08.001Z,32.90
2018-11-26T04:56:36.220Z,30.17
2018-11-26T04:59:04.627Z,29.40
2018-11-26T05:01:32.840Z,27.03
2018-11-26T05:04:01.052Z,28.70
2018-11-26T05:06:29.275Z,27.37
2018-11-26T05:08:57.511Z,27.57
2018-11-26T05:11:25.707Z,27.97
2018-11-26T05:13:53.912Z,27.40
2018-11-26T05:16:22.120Z,25.90
2018-11-26T05:18:50.348Z,27.63
2018-11-26T05:21:18.592Z,26.47
2018-11-26T05:23:46.807Z,27.13
2018-11-26T05:26:14.996Z,26.90
2018-11-26T05:28:43.206Z,26.23
2018-11-26T05:31:11.415Z,26.33
2018-11-26T05:33:39.642Z,27.80
2018-11-26T05:36:07.841Z,27.77
2018-11-26T05:38:36.045Z,28.23
2018-11-26T05:41:04.286Z,26.93
2018-11-26T05:43:32.671Z,28.40
2018-11-26T05:46:01.078Z,27.17
2018-11-26T05:48:29.319Z,29.10
2018-11-26T05:50:57.534Z,29.50
2018-11-26T05:53:25.760Z,29.73
2018-11-26T05:55:53.968Z,29.23
2018-11-26T05:58:22.235Z,28.37
2018-11-26T06:00:50.435Z,29.73
2018-11-26T06:03:18.708Z,28.20
2018-11-26T06:05:46.909Z,29.93
2018-11-26T06:08:15.106Z,29.97
2018-11-26T06:10:43.460Z,30.70
2018-11-26T06:13:11.658Z,29.87
2018-11-26T06:15:39.879Z,30.43
2018-11-26T06:18:08.139Z,31.47
2018-11-26T06:20:36.416Z,32.10
2018-11-26T06:23:04.610Z,30.87
2018-11-26T06:25:32.855Z,30.07
2018-11-26T06:28:01.640Z,30.30
2018-11-26T06:30:29.865Z,31.00
2018-11-26T06:32:58.068Z,32.17
2018-11-26T06:35:26.281Z,30.30
2018-11-26T06:37:54.532Z,31.93
2018-11-26T06:40:22.739Z,30.57
2018-11-26T06:42:50.927Z,30.40
2018-11-26T06:45:20.307Z,30.60
2018-11-26T06:47:48.512Z,30.40
2018-11-26T06:50:17.631Z,29.47
2018-11-26T06:52:45.887Z,29.47
2018-11-26T06:55:16.295Z,30.13
2018-11-26T06:57:44.488Z,29.60
2018-11-26T07:00:13.865Z,31.93
2018-11-26T07:02:42.122Z,31.30
2018-11-26T07:05:17.339Z,29.70
2018-11-26T07:07:45.595Z,29.83
2018-11-26T07:10:14.249Z,28.60
2018-11-26T07:12:42.770Z,29.73
2018-11-26T07:15:16.935Z,30.87
2018-11-26T07:17:45.215Z,30.43
2018-11-26T07:20:15.300Z,29.83
2018-11-26T07:22:43.535Z,30.80
2018-11-26T07:25:12.689Z,31.10
2018-11-26T07:27:41.020Z,30.53
2018-11-26T07:30:12.558Z,31.43
2018-11-26T07:32:41.452Z,31.00
2018-11-26T07:35:10.003Z,30.90
2018-11-26T07:37:38.244Z,30.20
2018-11-26T07:40:09.568Z,30.23
2018-11-26T07:42:37.922Z,30.40
2018-11-26T07:45:14.818Z,30.73
2018-11-26T07:47:43.036Z,31.47
2018-11-26T07:50:14.573Z,31.07
2018-11-26T07:52:42.804Z,30.03
2018-11-26T07:55:14.136Z,30.23
2018-11-26T07:57:42.383Z,31.23
2018-11-26T08:00:11.965Z,31.00
2018-11-26T08:02:40.184Z,32.43
2018-11-26T08:05:10.043Z,32.70
2018-11-26T08:07:38.283Z,29.63
2018-11-26T08:10:09.768Z,30.13
2018-11-26T08:12:38.019Z,31.13
2018-11-26T08:15:11.712Z,31.73
2018-11-26T08:17:40.002Z,30.63
2018-11-26T08:20:09.058Z,31.13
2018-11-26T08:22:37.314Z,32.20
2018-11-26T08:25:08.350Z,33.23
2018-11-26T08:27:36.639Z,31.57
2018-11-26T08:30:08.667Z,32.53
2018-11-26T08:32:36.872Z,31.60
2018-11-26T08:35:05.261Z,34.07
2018-11-26T08:37:33.494Z,33.77
2018-11-26T08:40:07.210Z,33.87
2018-11-26T08:42:45.630Z,33.43
2018-11-26T08:45:19.144Z,33.97
2018-11-26T08:47:52.928Z,33.67
2018-11-26T08:50:21.166Z,33.87
2018-11-26T08:52:49.408Z,32.87
2018-11-26T08:55:17.616Z,31.77
2018-11-26T08:57:45.826Z,33.13
2018-11-26T09:00:14.039Z,36.07
2018-11-26T09:02:47.588Z,31.80
2018-11-26T09:05:24.110Z,32.83
2018-11-26T09:07:49.452Z,30.47
2018-11-26T09:10:17.683Z,30.80
2018-11-26T09:12:45.871Z,32.10
2018-11-26T09:15:14.153Z,31.87
2018-11-26T09:17:42.353Z,31.73
2018-11-26T09:20:11.115Z,31.07
2018-11-26T09:22:39.341Z,30.63
2018-11-26T09:25:11.402Z,29.17
2018-11-26T09:27:39.656Z,32.57
2018-11-26T09:30:11.293Z,28.97
2018-11-26T09:32:39.753Z,31.00
2018-11-26T09:35:09.683Z,31.73
2018-11-26T09:37:37.883Z,30.83
2018-11-26T09:40:07.693Z,31.40
2018-11-26T09:42:35.897Z,30.97
2018-11-26T09:45:04.655Z,30.70
2018-11-26T09:47:32.851Z,32.07
2018-11-26T09:50:01.094Z,30.80
2018-11-26T09:52:29.359Z,31.00
2018-11-26T09:54:57.595Z,29.23
2018-11-26T09:57:25.812Z,29.20
2018-11-26T09:59:54.080Z,30.23
2018-11-26T10:02:22.308Z,28.67
2018-11-26T10:04:50.507Z,30.83
2018-11-26T10:07:18.713Z,29.80
2018-11-26T10:09:46.927Z,29.57
2018-11-26T10:12:15.128Z,29.47
2018-11-26T10:14:43.383Z,30.10
2018-11-26T10:17:11.621Z,29.20
2018-11-26T10:19:39.838Z,29.07
2018-11-26T10:22:08.088Z,29.40
2018-11-26T10:24:36.339Z,27.97
2018-11-26T10:27:04.551Z,29.30
2018-11-26T10:29:32.769Z,29.20
2018-11-26T10:32:01.000Z,27.80
2018-11-26T10:34:29.228Z,27.57
2018-11-26T10:36:57.440Z,27.70
2018-11-26T10:39:25.646Z,28.20
2018-11-26T10:41:53.888Z,28.93
2018-11-26T10:44:22.093Z,28.30
2018-11-26T10:46:50.318Z,27.13
2018-11-26T10:49:18.526Z,26.70
2018-11-26T10:51:46.743Z,28.40
2018-11-26T10:54:14.988Z,27.33
2018-11-26T10:56:43.256Z,27.90
2018-11-26T10:59:11.516Z,27.03
2018-11-26T11:01:44.500Z,26.10
2018-11-26T11:04:12.710Z,25.03
2018-11-26T11:06:40.928Z,25.37
2018-11-26T11:09:09.412Z,25.13
2018-11-26T11:11:37.649Z,25.23
2018-11-26T11:14:05.865Z,25.70
2018-11-26T11:16:34.086Z,25.40
2018-11-26T11:19:02.300Z,23.47
2018-11-26T11:21:30.528Z,24.37
2018-11-26T11:23:58.727Z,25.30
2018-11-26T11:26:27.164Z,24.30
2018-11-26T11:28:55.193Z,24.27
2018-11-26T11:31:23.413Z,27.13
2018-11-26T11:33:51.696Z,24.33
2018-11-26T11:36:19.929Z,28.10
2018-11-26T11:38:48.126Z,27.30
2018-11-26T11:41:16.336Z,25.30
2018-11-26T11:43:44.562Z,25.83
2018-11-26T11:46:12.771Z,25.33
2018-11-26T11:48:41.026Z,23.37
2018-11-26T11:51:09.241Z,22.20
2018-11-26T11:53:37.462Z,21.63
2018-11-26T11:56:06.066Z,21.10
2018-11-26T11:58:34.297Z,18.37
2018-11-26T12:01:02.523Z,20.17
2018-11-26T12:03:30.756Z,20.70
2018-11-26T12:05:59.065Z,19.73
2018-11-26T12:08:27.290Z,23.17
2018-11-26T12:10:55.526Z,23.70
2018-11-26T12:13:23.777Z,24.57
2018-11-26T12:15:52.735Z,23.30
2018-11-26T12:18:21.010Z,23.13
2018-11-26T12:20:49.281Z,23.83
2018-11-26T12:23:17.519Z,22.97
2018-11-26T12:25:45.793Z,22.43
2018-11-26T12:28:14.081Z,23.60
2018-11-26T12:30:44.991Z,22.63
2018-11-26T12:33:13.247Z,24.40
2018-11-26T12:35:41.520Z,24.47
2018-11-26T12:38:09.782Z,24.93
2018-11-26T12:40:37.977Z,24.37
2018-11-26T12:43:06.869Z,23.50
2018-11-26T12:45:35.279Z,25.03
2018-11-26T12:48:03.570Z,23.43
2018-11-26T12:50:32.037Z,23.00
2018-11-26T12:53:00.263Z,25.10
2018-11-26T12:55:28.487Z,25.50
2018-11-26T12:57:57.896Z,25.90
2018-11-26T13:00:27.103Z,26.77
2018-11-26T13:02:59.674Z,27.47
2018-11-26T13:05:28.962Z,27.07
2018-11-26T13:07:57.182Z,27.40
2018-11-26T13:10:25.412Z,25.53
2018-11-26T13:12:53.729Z,29.10
2018-11-26T13:15:23.777Z,29.70
2018-11-26T13:17:51.994Z,26.90
2018-11-26T13:20:21.746Z,27.00
2018-11-26T13:22:50.298Z,27.20
2018-11-26T13:25:19.619Z,27.60
2018-11-26T13:27:49.087Z,26.77
2018-11-26T13:30:18.526Z,26.67
2018-11-26T13:32:48.126Z,25.60
2018-11-26T13:35:17.226Z,26.77
2018-11-26T13:37:45.429Z,26.57
2018-11-26T13:40:14.577Z,26.60
2018-11-26T13:42:43.005Z,24.70
2018-11-26T13:45:19.240Z,24.50
2018-11-26T13:47:47.457Z,25.83
2018-11-26T13:50:23.019Z,24.80
2018-11-26T13:52:50.528Z,24.27
2018-11-26T13:55:18.803Z,24.23
2018-11-26T13:57:47.085Z,25.33
2018-11-26T14:00:16.123Z,23.80
2018-11-26T14:02:44.345Z,23.77
2018-11-26T14:05:14.399Z,23.80
2018-11-26T14:07:42.708Z,22.90
2018-11-26T14:10:12.333Z,24.20
2018-11-26T14:12:41.025Z,24.73
2018-11-26T14:15:15.987Z,24.03
2018-11-26T14:17:44.267Z,24.23
2018-11-26T14:20:13.749Z,24.50
2018-11-26T14:22:42.010Z,25.90
2018-11-26T14:25:15.390Z,24.40
2018-11-26T14:27:44.141Z,26.73
2018-11-26T14:30:18.616Z,21.73
2018-11-26T14:32:46.867Z,22.17
2018-11-26T14:35:15.080Z,22.07
2018-11-26T14:37:43.521Z,23.97
2018-11-26T14:40:13.445Z,21.87
2018-11-26T14:42:41.691Z,25.93
2018-11-26T14:45:11.506Z,24.43
2018-11-26T14:47:39.738Z,23.00
2018-11-26T14:50:10.510Z,23.43
2018-11-26T14:52:39.149Z,23.87
2018-11-26T14:55:10.605Z,23.23
2018-11-26T14:57:38.887Z,22.23
2018-11-26T15:00:12.136Z,24.13
2018-11-26T15:02:40.409Z,23.70
2018-11-26T15:05:08.737Z,24.80
2018-11-26T15:07:36.979Z,26.23
2018-11-26T15:10:07.590Z,26.97
2018-11-26T15:12:35.822Z,26.20
2018-11-26T15:15:04.035Z,25.07
2018-11-26T15:17:32.248Z,26.03
2018-11-26T15:20:00.481Z,23.70
2018-11-26T15:22:28.741Z,23.87
2018-11-26T15:24:56.979Z,23.77
2018-11-26T15:27:25.225Z,24.93
2018-11-26T15:29:53.449Z,24.23
2018-11-26T15:32:21.721Z,24.50
2018-11-26T15:34:49.931Z,24.20
2018-11-26T15:37:18.197Z,23.87
2018-11-26T15:39:46.450Z,24.60
2018-11-26T15:42:14.723Z,23.13
2018-11-26T15:44:42.999Z,23.33
2018-11-26T15:47:11.202Z,23.60
2018-11-26T15:49:39.513Z,24.00
2018-11-26T15:52:07.767Z,26.97
2018-11-26T15:54:35.990Z,26.80
2018-11-26T15:57:04.197Z,24.50
2018-11-26T15:59:32.438Z,24.90
2018-11-26T16:02:00.690Z,23.53
2018-11-26T16:04:29.740Z,23.40
2018-11-26T16:06:57.938Z,24.10
2018-11-26T16:09:26.166Z,23.07
2018-11-26T16:11:54.415Z,24.17
2018-11-26T16:14:22.620Z,24.60
2018-11-26T16:16:50.877Z,24.53
2018-11-26T16:19:19.118Z,24.23
2018-11-26T16:21:47.348Z,22.77
2018-11-26T16:24:15.600Z,22.13
2018-11-26T16:26:43.806Z,23.37
2018-11-26T16:29:12.040Z,24.77
2018-11-26T16:31:40.250Z,24.30
2018-11-26T16:34:08.466Z,24.77
2018-11-26T16:36:36.692Z,23.97
2018-11-26T16:39:07.554Z,23.77
2018-11-26T16:41:35.751Z,23.47
2018-11-26T16:44:03.986Z,23.13
2018-11-26T16:46:32.191Z,23.73
2018-11-26T16:49:00.414Z,23.77
2018-11-26T16:51:28.641Z,24.27
2018-11-26T16:53:56.870Z,25.20
2018-11-26T16:56:25.111Z,24.50
2018-11-26T16:58:53.314Z,36.17
2018-11-26T17:01:21.545Z,24.70
2018-11-26T17:03:49.755Z,24.70
2018-11-26T17:06:17.978Z,24.70
2018-11-26T17:08:46.211Z,26.83
2018-11-26T17:11:14.443Z,26.10
2018-11-26T17:13:42.661Z,28.27
2018-11-26T17:16:10.877Z,25.57
2018-11-26T17:18:39.088Z,25.97
2018-11-26T17:21:07.354Z,25.50
2018-11-26T17:23:35.610Z,25.77
2018-11-26T17:26:03.824Z,25.60
2018-11-26T17:28:32.016Z,27.37
2018-11-26T17:31:00.267Z,25.50
2018-11-26T17:33:28.477Z,24.43
2018-11-26T17:35:56.713Z,24.13
2018-11-26T17:38:24.901Z,22.20
2018-11-26T17:40:53.281Z,21.30
2018-11-26T17:43:21.494Z,21.43
2018-11-26T17:45:49.711Z,21.40
2018-11-26T17:48:17.978Z,22.77
2018-11-26T17:50:46.213Z,23.50
2018-11-26T17:53:16.661Z,24.37
2018-11-26T17:55:47.836Z,22.53
2018-11-26T17:58:16.201Z,21.80
2018-11-26T18:00:46.135Z,21.50
2018-11-26T18:03:14.357Z,19.57
2018-11-26T18:05:42.552Z,19.47
2018-11-26T18:08:13.097Z,20.20
2018-11-26T18:10:41.337Z,19.87
2018-11-26T18:13:09.863Z,19.87
2018-11-26T18:15:38.079Z,18.60
2018-11-26T18:18:10.583Z,19.80
2018-11-26T18:20:38.855Z,19.37
2018-11-26T18:23:07.956Z,20.03
2018-11-26T18:25:36.161Z,20.53
2018-11-26T18:28:09.135Z,20.00
2018-11-26T18:30:39.015Z,19.77
2018-11-26T18:33:07.241Z,20.83
2018-11-26T18:35:35.698Z,19.87
2018-11-26T18:38:03.956Z,19.37
2018-11-26T18:40:32.184Z,19.67
2018-11-26T18:43:00.401Z,20.70
2018-11-26T18:45:28.661Z,20.17
2018-11-26T18:47:56.871Z,20.67
2018-11-26T18:50:25.080Z,20.63
2018-11-26T18:52:53.318Z,20.90
2018-11-26T18:55:21.521Z,20.43
2018-11-26T18:57:50.169Z,20.20
2018-11-26T19:00:28.472Z,22.20
2018-11-26T19:02:57.345Z,20.17
2018-11-26T19:05:25.604Z,20.43
2018-11-26T19:07:53.834Z,20.53
2018-11-26T19:10:28.530Z,19.80
2018-11-26T19:12:59.073Z,18.83
2018-11-26T19:15:36.004Z,19.07
2018-11-26T19:18:11.478Z,21.53
2018-11-26T19:20:39.681Z,19.47
2018-11-26T19:23:07.922Z,21.33
2018-11-26T19:25:36.125Z,21.07
2018-11-26T19:28:04.373Z,18.53
2018-11-26T19:30:32.587Z,19.60
2018-11-26T19:33:00.809Z,19.07
2018-11-26T19:35:29.007Z,18.30
2018-11-26T19:37:57.262Z,20.83
2018-11-26T19:40:25.493Z,21.37
2018-11-26T19:42:53.789Z,21.83
2018-11-26T19:45:21.997Z,20.90
2018-11-26T19:47:50.263Z,21.03
2018-11-26T19:50:19.474Z,21.97
2018-11-26T19:52:50.027Z,21.17
2018-11-26T19:55:23.277Z,20.50
2018-11-26T19:57:51.973Z,20.50
2018-11-26T20:00:22.145Z,20.57
2018-11-26T20:04:00.616Z,20.57
2018-11-26T20:06:28.821Z,21.67
2018-11-26T20:08:58.703Z,20.97
2018-11-26T20:11:32.969Z,21.17
2018-11-26T20:13:55.191Z,20.83
2018-11-26T20:16:28.503Z,20.27
2018-11-26T20:18:56.727Z,20.40
2018-11-26T20:21:24.968Z,20.77
2018-11-26T20:23:53.202Z,19.67
2018-11-26T20:26:21.417Z,20.13
2018-11-26T20:28:49.810Z,19.40
2018-11-26T20:31:18.104Z,17.53
2018-11-26T20:33:46.364Z,18.30
2018-11-26T20:36:15.160Z,18.33
2018-11-26T20:38:43.416Z,19.73
2018-11-26T20:41:12.478Z,19.83
2018-11-26T20:43:40.706Z,20.03
2018-11-26T20:46:08.960Z,19.03
2018-11-26T20:48:37.214Z,18.87
2018-11-26T20:51:06.618Z,19.23
2018-11-26T20:53:34.849Z,18.80
2018-11-26T20:56:07.477Z,17.57
2018-11-26T20:58:35.703Z,17.50
2018-11-26T21:01:03.974Z,18.37
2018-11-26T21:03:32.237Z,16.57
2018-11-26T21:06:00.465Z,17.43
2018-11-26T21:08:28.686Z,18.10
2018-11-26T21:10:57.094Z,18.97
2018-11-26T21:13:25.338Z,19.10
2018-11-26T21:15:53.582Z,18.40
2018-11-26T21:18:21.818Z,18.33
2018-11-26T21:20:50.924Z,17.67
2018-11-26T21:23:28.234Z,18.50
2018-11-26T21:25:57.720Z,17.40
2018-11-26T21:28:25.931Z,19.57
2018-11-26T21:30:54.304Z,19.30
2018-11-26T21:33:22.438Z,19.13
2018-11-26T21:35:50.694Z,19.13
2018-11-26T21:38:18.898Z,18.47
2018-11-26T21:40:47.140Z,17.10
2018-11-26T21:43:15.378Z,17.63
2018-11-26T21:45:49.270Z,16.93
2018-11-26T21:48:17.493Z,18.30
2018-11-26T21:50:45.717Z,17.20
2018-11-26T21:53:13.926Z,18.10
2018-11-26T21:55:42.204Z,17.23
2018-11-26T21:58:10.459Z,16.77
2018-11-26T22:00:39.407Z,17.13
2018-11-26T22:03:09.436Z,17.30
2018-11-26T22:05:38.641Z,17.07
2018-11-26T22:08:07.489Z,18.40
2018-11-26T22:10:36.710Z,18.00
2018-11-26T22:13:05.463Z,17.23
2018-11-26T22:15:33.711Z,17.73
2018-11-26T22:18:02.397Z,17.20
2018-11-26T22:20:31.202Z,17.10
2018-11-26T22:22:59.437Z,17.10
2018-11-26T22:25:27.666Z,17.47
2018-11-26T22:27:55.928Z,17.37
2018-11-26T22:30:26.321Z,18.10
2018-11-26T22:32:54.535Z,17.60
2018-11-26T22:35:22.759Z,17.63
2018-11-26T22:37:50.966Z,16.67
2018-11-26T22:40:20.932Z,17.30
2018-11-26T22:42:49.150Z,16.00
2018-11-26T22:45:19.341Z,17.47
2018-11-26T22:47:51.915Z,16.03
2018-11-26T22:50:20.140Z,17.60
2018-11-26T22:52:48.340Z,17.57
2018-11-26T22:55:16.563Z,16.63
2018-11-26T22:57:45.073Z,17.73
2018-11-26T23:00:14.667Z,17.53
2018-11-26T23:02:42.889Z,17.50
2018-11-26T23:05:11.123Z,17.63
2018-11-26T23:07:39.321Z,16.07
2018-11-26T23:10:08.875Z,17.20
2018-11-26T23:12:37.104Z,15.67
2018-11-26T23:15:08.133Z,15.43
2018-11-26T23:17:36.335Z,15.97
2018-11-26T23:20:07.046Z,18.67
2018-11-26T23:22:35.282Z,18.13
2018-11-26T23:25:03.522Z,18.43
2018-11-26T23:27:31.758Z,17.97
2018-11-26T23:30:00.004Z,18.30
2018-11-26T23:32:28.209Z,17.97
2018-11-26T23:34:56.423Z,17.70
2018-11-26T23:37:24.650Z,16.20
2018-11-26T23:39:52.907Z,15.37
2018-11-26T23:42:21.126Z,16.73
2018-11-26T23:44:50.496Z,16.17
2018-11-26T23:47:18.715Z,15.73
2018-11-26T23:49:46.952Z,17.33
2018-11-26T23:52:15.194Z,17.07
2018-11-26T23:54:43.385Z,16.57
2018-11-26T23:57:11.696Z,16.83
2018-11-26T23:59:39.906Z,18.90
